Terminal Aerodrome Forecast
Issued by NWS

Home | Current Version | Previous Version | Text Only | Print | Product List | Glossary On
Versions: 1 2 3 4 5 6 7 8 9 10 11 12 13 14
000
FTUS45 KLKN 231700
TAFTPH
TAF
KTPH 231728Z 2318/2418 36010KT P6SM BKN250
     FM232000 20010G20KT P6SM SCT250
     FM240600 01007KT P6SM SKC=

USA.gov is the U.S. government's official web portal to all federal, state and local government web resources and services.